Terminal Aerodrome Forecast
Issued by NWS Jackson, KY

Home | Current Version | Previous Version | Text Only | Print | Product List | Glossary On
Versions: 1 2 3 4 5 6 7 8 9 10 11 12 13 14 15 16 17 18 19 20
000
FTUS43 KJKL 262300
TAFJKL
TAF
KJKL 262338Z 2700/2724 28005KT P6SM OVC008
     FM270100 28003KT P6SM OVC015
     FM270600 30009KT P6SM VCSH OVC010
     FM271400 33003KT P6SM BKN025 BKN060
     FM271800 33003KT P6SM SCT025 BKN060=

USA.gov is the U.S. government's official web portal to all federal, state and local government web resources and services.